sensor_id;sensor_type;location;lat;lon;timestamp;P1;durP1;ratioP1;P2;durP2;ratioP2
31284;SDS011;56605;51.516;6.742;2022-10-19T00:02:10;10.50;;;4.20;;
31284;SDS011;56605;51.516;6.742;2022-10-19T00:04:35;9.47;;;4.27;;
31284;SDS011;56605;51.516;6.742;2022-10-19T00:07:00;7.50;;;4.35;;
31284;SDS011;56605;51.516;6.742;2022-10-19T00:09:25;10.30;;;4.13;;
31284;SDS011;56605;51.516;6.742;2022-10-19T00:11:51;9.90;;;4.95;;
31284;SDS011;56605;51.516;6.742;2022-10-19T00:14:18;9.20;;;4.68;;
31284;SDS011;56605;51.516;6.742;2022-10-19T00:16:44;9.98;;;5.40;;
31284;SDS011;56605;51.516;6.742;2022-10-19T00:19:11;10.30;;;4.22;;
31284;SDS011;56605;51.516;6.742;2022-10-19T00:21:37;8.98;;;3.65;;
31284;SDS011;56605;51.516;6.742;2022-10-19T00:24:03;11.80;;;3.63;;
31284;SDS011;56605;51.516;6.742;2022-10-19T00:26:28;15.77;;;4.32;;
31284;SDS011;56605;51.516;6.742;2022-10-19T00:28:54;12.18;;;4.10;;
31284;SDS011;56605;51.516;6.742;2022-10-19T00:31:19;5.05;;;3.63;;
31284;SDS011;56605;51.516;6.742;2022-10-19T00:33:45;7.32;;;3.75;;
31284;SDS011;56605;51.516;6.742;2022-10-19T00:36:30;13.35;;;3.80;;
31284;SDS011;56605;51.516;6.742;2022-10-19T00:38:56;8.73;;;3.97;;
31284;SDS011;56605;51.516;6.742;2022-10-19T00:41:23;10.43;;;4.80;;
31284;SDS011;56605;51.516;6.742;2022-10-19T00:43:53;7.97;;;4.07;;
31284;SDS011;56605;51.516;6.742;2022-10-19T00:46:18;11.50;;;4.35;;
31284;SDS011;56605;51.516;6.742;2022-10-19T00:48:44;8.73;;;4.20;;
31284;SDS011;56605;51.516;6.742;2022-10-19T00:51:09;11.57;;;4.05;;
31284;SDS011;56605;51.516;6.742;2022-10-19T00:53:35;9.68;;;3.83;;
31284;SDS011;56605;51.516;6.742;2022-10-19T00:56:01;13.32;;;4.45;;
31284;SDS011;56605;51.516;6.742;2022-10-19T00:58:27;7.68;;;3.97;;
31284;SDS011;56605;51.516;6.742;2022-10-19T01:00:52;8.30;;;3.67;;
31284;SDS011;56605;51.516;6.742;2022-10-19T01:03:18;7.93;;;3.90;;
31284;SDS011;56605;51.516;6.742;2022-10-19T01:05:43;9.88;;;3.63;;
31284;SDS011;56605;51.516;6.742;2022-10-19T01:08:08;4.03;;;3.15;;
31284;SDS011;56605;51.516;6.742;2022-10-19T01:10:47;9.20;;;3.50;;
31284;SDS011;56605;51.516;6.742;2022-10-19T01:15:57;11.05;;;3.92;;
31284;SDS011;56605;51.516;6.742;2022-10-19T01:18:36;10.85;;;3.63;;
31284;SDS011;56605;51.516;6.742;2022-10-19T01:31:32;12.15;;;4.13;;
31284;SDS011;56605;51.516;6.742;2022-10-19T01:34:05;12.05;;;4.70;;
31284;SDS011;56605;51.516;6.742;2022-10-19T01:36:40;9.57;;;4.07;;
31284;SDS011;56605;51.516;6.742;2022-10-19T01:39:09;9.48;;;4.55;;
31284;SDS011;56605;51.516;6.742;2022-10-19T01:44:36;10.30;;;4.07;;
31284;SDS011;56605;51.516;6.742;2022-10-19T01:47:05;8.60;;;3.67;;
31284;SDS011;56605;51.516;6.742;2022-10-19T01:52:10;8.70;;;3.95;;
31284;SDS011;56605;51.516;6.742;2022-10-19T01:54:37;9.30;;;3.83;;
31284;SDS011;56605;51.516;6.742;2022-10-19T01:57:04;13.55;;;3.88;;
31284;SDS011;56605;51.516;6.742;2022-10-19T01:59:30;8.75;;;3.80;;
31284;SDS011;56605;51.516;6.742;2022-10-19T02:01:56;12.90;;;4.15;;
31284;SDS011;56605;51.516;6.742;2022-10-19T02:04:22;9.75;;;4.40;;
31284;SDS011;56605;51.516;6.742;2022-10-19T02:06:49;12.43;;;5.13;;
31284;SDS011;56605;51.516;6.742;2022-10-19T02:09:15;10.65;;;4.03;;
31284;SDS011;56605;51.516;6.742;2022-10-19T02:11:43;8.70;;;4.15;;
31284;SDS011;56605;51.516;6.742;2022-10-19T02:14:10;7.32;;;3.90;;
31284;SDS011;56605;51.516;6.742;2022-10-19T02:16:41;8.55;;;3.75;;
31284;SDS011;56605;51.516;6.742;2022-10-19T02:19:09;9.50;;;4.00;;
31284;SDS011;56605;51.516;6.742;2022-10-19T02:21:35;10.35;;;3.90;;
31284;SDS011;56605;51.516;6.742;2022-10-19T02:24:00;10.35;;;4.40;;
31284;SDS011;56605;51.516;6.742;2022-10-19T02:26:26;6.68;;;3.97;;
31284;SDS011;56605;51.516;6.742;2022-10-19T02:28:52;10.10;;;4.25;;
31284;SDS011;56605;51.516;6.742;2022-10-19T02:31:18;12.23;;;4.35;;
31284;SDS011;56605;51.516;6.742;2022-10-19T02:33:43;9.90;;;4.65;;
31284;SDS011;56605;51.516;6.742;2022-10-19T02:36:08;8.85;;;3.38;;
31284;SDS011;56605;51.516;6.742;2022-10-19T02:38:33;11.88;;;4.45;;
31284;SDS011;56605;51.516;6.742;2022-10-19T02:41:01;8.20;;;3.65;;
31284;SDS011;56605;51.516;6.742;2022-10-19T02:43:28;9.18;;;4.05;;
31284;SDS011;56605;51.516;6.742;2022-10-19T02:46:01;8.68;;;4.45;;
31284;SDS011;56605;51.516;6.742;2022-10-19T02:48:28;12.43;;;4.25;;
31284;SDS011;56605;51.516;6.742;2022-10-19T02:50:55;17.38;;;5.05;;
31284;SDS011;56605;51.516;6.742;2022-10-19T02:53:20;13.40;;;4.57;;
31284;SDS011;56605;51.516;6.742;2022-10-19T02:55:46;6.15;;;3.90;;
31284;SDS011;56605;51.516;6.742;2022-10-19T02:58:12;8.45;;;4.32;;
31284;SDS011;56605;51.516;6.742;2022-10-19T03:00:37;10.30;;;3.92;;
31284;SDS011;56605;51.516;6.742;2022-10-19T03:03:02;12.63;;;5.18;;
31284;SDS011;56605;51.516;6.742;2022-10-19T03:05:28;11.32;;;5.03;;
31284;SDS011;56605;51.516;6.742;2022-10-19T03:07:53;10.73;;;4.72;;
31284;SDS011;56605;51.516;6.742;2022-10-19T03:10:18;10.57;;;4.57;;
31284;SDS011;56605;51.516;6.742;2022-10-19T03:12:43;12.30;;;4.68;;
31284;SDS011;56605;51.516;6.742;2022-10-19T03:15:09;7.90;;;5.00;;
31284;SDS011;56605;51.516;6.742;2022-10-19T03:17:34;10.68;;;5.35;;
31284;SDS011;56605;51.516;6.742;2022-10-19T03:20:00;10.32;;;4.95;;
31284;SDS011;56605;51.516;6.742;2022-10-19T03:22:25;11.45;;;5.13;;
31284;SDS011;56605;51.516;6.742;2022-10-19T03:24:50;15.00;;;5.40;;
31284;SDS011;56605;51.516;6.742;2022-10-19T03:27:15;9.45;;;6.03;;
31284;SDS011;56605;51.516;6.742;2022-10-19T03:29:40;11.98;;;5.07;;
31284;SDS011;56605;51.516;6.742;2022-10-19T03:32:06;15.07;;;5.43;;
31284;SDS011;56605;51.516;6.742;2022-10-19T03:34:31;9.48;;;5.72;;
31284;SDS011;56605;51.516;6.742;2022-10-19T03:36:56;10.13;;;5.40;;
31284;SDS011;56605;51.516;6.742;2022-10-19T03:39:23;10.38;;;6.10;;
31284;SDS011;56605;51.516;6.742;2022-10-19T03:41:48;9.55;;;5.75;;
31284;SDS011;56605;51.516;6.742;2022-10-19T03:44:13;12.98;;;5.88;;
31284;SDS011;56605;51.516;6.742;2022-10-19T03:46:39;12.30;;;5.70;;
31284;SDS011;56605;51.516;6.742;2022-10-19T03:49:04;16.65;;;5.93;;
31284;SDS011;56605;51.516;6.742;2022-10-19T03:51:29;13.32;;;6.22;;
31284;SDS011;56605;51.516;6.742;2022-10-19T03:53:56;11.60;;;5.40;;
31284;SDS011;56605;51.516;6.742;2022-10-19T03:56:23;13.07;;;5.72;;
31284;SDS011;56605;51.516;6.742;2022-10-19T03:58:49;9.95;;;5.70;;
31284;SDS011;56605;51.516;6.742;2022-10-19T04:01:34;13.15;;;6.07;;
31284;SDS011;56605;51.516;6.742;2022-10-19T04:04:00;13.02;;;5.32;;
31284;SDS011;56605;51.516;6.742;2022-10-19T04:06:30;8.88;;;5.72;;
31284;SDS011;56605;51.516;6.742;2022-10-19T04:08:56;9.07;;;5.35;;
31284;SDS011;56605;51.516;6.742;2022-10-19T04:11:22;12.98;;;5.53;;
31284;SDS011;56605;51.516;6.742;2022-10-19T04:13:48;12.55;;;5.68;;
31284;SDS011;56605;51.516;6.742;2022-10-19T04:16:16;14.77;;;6.22;;
31284;SDS011;56605;51.516;6.742;2022-10-19T04:18:42;16.60;;;6.22;;
31284;SDS011;56605;51.516;6.742;2022-10-19T04:21:16;19.50;;;6.83;;
31284;SDS011;56605;51.516;6.742;2022-10-19T04:23:43;13.57;;;6.90;;
31284;SDS011;56605;51.516;6.742;2022-10-19T04:26:08;13.63;;;6.25;;
31284;SDS011;56605;51.516;6.742;2022-10-19T04:28:33;9.90;;;6.53;;
31284;SDS011;56605;51.516;6.742;2022-10-19T04:31:05;11.57;;;6.72;;
31284;SDS011;56605;51.516;6.742;2022-10-19T04:33:31;17.42;;;7.15;;
31284;SDS011;56605;51.516;6.742;2022-10-19T04:35:57;10.90;;;6.38;;
31284;SDS011;56605;51.516;6.742;2022-10-19T04:38:22;12.52;;;6.35;;
31284;SDS011;56605;51.516;6.742;2022-10-19T04:40:47;15.25;;;6.65;;
31284;SDS011;56605;51.516;6.742;2022-10-19T04:43:13;12.18;;;6.30;;
31284;SDS011;56605;51.516;6.742;2022-10-19T04:45:38;15.43;;;6.95;;
31284;SDS011;56605;51.516;6.742;2022-10-19T04:48:03;10.43;;;5.75;;
31284;SDS011;56605;51.516;6.742;2022-10-19T04:50:29;10.68;;;6.28;;
31284;SDS011;56605;51.516;6.742;2022-10-19T04:52:54;14.37;;;6.27;;
31284;SDS011;56605;51.516;6.742;2022-10-19T04:55:19;16.13;;;5.60;;
31284;SDS011;56605;51.516;6.742;2022-10-19T04:57:45;10.47;;;6.43;;
31284;SDS011;56605;51.516;6.742;2022-10-19T05:00:10;15.20;;;5.97;;
31284;SDS011;56605;51.516;6.742;2022-10-19T05:02:35;13.25;;;6.60;;
31284;SDS011;56605;51.516;6.742;2022-10-19T05:05:00;12.60;;;6.43;;
31284;SDS011;56605;51.516;6.742;2022-10-19T05:07:26;15.68;;;6.50;;
31284;SDS011;56605;51.516;6.742;2022-10-19T05:09:51;9.82;;;5.65;;
31284;SDS011;56605;51.516;6.742;2022-10-19T05:12:16;12.55;;;6.40;;
31284;SDS011;56605;51.516;6.742;2022-10-19T05:14:41;13.90;;;6.35;;
31284;SDS011;56605;51.516;6.742;2022-10-19T05:17:06;11.35;;;6.25;;
31284;SDS011;56605;51.516;6.742;2022-10-19T05:19:32;11.73;;;6.80;;
31284;SDS011;56605;51.516;6.742;2022-10-19T05:21:57;13.40;;;6.20;;
31284;SDS011;56605;51.516;6.742;2022-10-19T05:24:22;11.55;;;7.03;;
31284;SDS011;56605;51.516;6.742;2022-10-19T05:26:47;13.25;;;6.70;;
31284;SDS011;56605;51.516;6.742;2022-10-19T05:29:13;12.23;;;6.53;;
31284;SDS011;56605;51.516;6.742;2022-10-19T05:31:38;13.90;;;6.00;;
31284;SDS011;56605;51.516;6.742;2022-10-19T05:34:03;13.02;;;6.80;;
31284;SDS011;56605;51.516;6.742;2022-10-19T05:36:29;12.48;;;6.47;;
31284;SDS011;56605;51.516;6.742;2022-10-19T05:38:59;13.23;;;7.15;;
31284;SDS011;56605;51.516;6.742;2022-10-19T05:41:25;12.38;;;6.35;;
31284;SDS011;56605;51.516;6.742;2022-10-19T05:43:51;13.88;;;7.57;;
31284;SDS011;56605;51.516;6.742;2022-10-19T05:46:16;13.95;;;6.35;;
31284;SDS011;56605;51.516;6.742;2022-10-19T05:48:42;15.38;;;6.93;;
31284;SDS011;56605;51.516;6.742;2022-10-19T05:51:10;15.55;;;6.85;;
31284;SDS011;56605;51.516;6.742;2022-10-19T05:53:36;11.57;;;6.00;;
31284;SDS011;56605;51.516;6.742;2022-10-19T05:56:02;13.52;;;6.88;;
31284;SDS011;56605;51.516;6.742;2022-10-19T05:58:28;16.95;;;6.75;;
31284;SDS011;56605;51.516;6.742;2022-10-19T06:00:54;20.50;;;6.65;;
31284;SDS011;56605;51.516;6.742;2022-10-19T06:03:20;15.30;;;6.57;;
31284;SDS011;56605;51.516;6.742;2022-10-19T06:05:46;14.80;;;7.03;;
31284;SDS011;56605;51.516;6.742;2022-10-19T06:08:11;11.15;;;6.20;;
31284;SDS011;56605;51.516;6.742;2022-10-19T06:10:37;11.63;;;6.37;;
31284;SDS011;56605;51.516;6.742;2022-10-19T06:13:02;10.02;;;6.45;;
31284;SDS011;56605;51.516;6.742;2022-10-19T06:15:27;11.77;;;6.72;;
31284;SDS011;56605;51.516;6.742;2022-10-19T06:17:52;12.65;;;7.03;;
31284;SDS011;56605;51.516;6.742;2022-10-19T06:20:17;22.80;;;6.82;;
31284;SDS011;56605;51.516;6.742;2022-10-19T06:22:42;20.88;;;7.57;;
31284;SDS011;56605;51.516;6.742;2022-10-19T06:25:08;13.48;;;7.07;;
31284;SDS011;56605;51.516;6.742;2022-10-19T06:27:33;20.30;;;7.43;;
31284;SDS011;56605;51.516;6.742;2022-10-19T06:29:58;16.15;;;7.90;;
31284;SDS011;56605;51.516;6.742;2022-10-19T06:32:23;15.73;;;7.20;;
31284;SDS011;56605;51.516;6.742;2022-10-19T06:34:48;14.75;;;6.25;;
31284;SDS011;56605;51.516;6.742;2022-10-19T06:37:14;11.63;;;6.97;;
31284;SDS011;56605;51.516;6.742;2022-10-19T06:39:39;22.60;;;10.17;;
31284;SDS011;56605;51.516;6.742;2022-10-19T06:42:04;16.55;;;9.10;;
31284;SDS011;56605;51.516;6.742;2022-10-19T06:44:29;17.20;;;9.20;;
31284;SDS011;56605;51.516;6.742;2022-10-19T06:46:54;21.27;;;9.93;;
31284;SDS011;56605;51.516;6.742;2022-10-19T06:49:19;17.92;;;9.85;;
31284;SDS011;56605;51.516;6.742;2022-10-19T06:51:45;19.13;;;9.50;;
31284;SDS011;56605;51.516;6.742;2022-10-19T06:54:10;18.37;;;10.20;;
31284;SDS011;56605;51.516;6.742;2022-10-19T06:56:35;22.00;;;11.45;;
31284;SDS011;56605;51.516;6.742;2022-10-19T06:59:00;18.77;;;10.83;;
31284;SDS011;56605;51.516;6.742;2022-10-19T07:01:26;29.25;;;10.40;;
31284;SDS011;56605;51.516;6.742;2022-10-19T07:03:51;21.55;;;11.10;;
31284;SDS011;56605;51.516;6.742;2022-10-19T07:06:16;29.10;;;11.45;;
31284;SDS011;56605;51.516;6.742;2022-10-19T07:08:42;21.48;;;11.70;;
31284;SDS011;56605;51.516;6.742;2022-10-19T07:11:11;19.90;;;12.40;;
31284;SDS011;56605;51.516;6.742;2022-10-19T07:13:38;30.83;;;12.38;;
31284;SDS011;56605;51.516;6.742;2022-10-19T07:16:05;33.03;;;12.63;;
31284;SDS011;56605;51.516;6.742;2022-10-19T07:18:31;25.83;;;13.18;;
31284;SDS011;56605;51.516;6.742;2022-10-19T07:20:57;30.20;;;13.02;;
31284;SDS011;56605;51.516;6.742;2022-10-19T07:23:23;31.77;;;15.27;;
31284;SDS011;56605;51.516;6.742;2022-10-19T07:25:48;26.60;;;13.80;;
31284;SDS011;56605;51.516;6.742;2022-10-19T07:28:13;25.52;;;14.40;;
31284;SDS011;56605;51.516;6.742;2022-10-19T07:30:38;29.57;;;16.37;;
31284;SDS011;56605;51.516;6.742;2022-10-19T07:33:04;29.53;;;15.43;;
31284;SDS011;56605;51.516;6.742;2022-10-19T07:35:30;26.63;;;14.65;;
31284;SDS011;56605;51.516;6.742;2022-10-19T07:37:55;32.67;;;15.03;;
31284;SDS011;56605;51.516;6.742;2022-10-19T07:40:20;26.53;;;14.50;;
31284;SDS011;56605;51.516;6.742;2022-10-19T07:42:46;38.50;;;14.50;;
31284;SDS011;56605;51.516;6.742;2022-10-19T07:45:11;25.55;;;15.02;;
31284;SDS011;56605;51.516;6.742;2022-10-19T07:47:36;29.43;;;13.67;;
31284;SDS011;56605;51.516;6.742;2022-10-19T07:50:01;33.50;;;15.03;;
31284;SDS011;56605;51.516;6.742;2022-10-19T07:52:26;33.92;;;15.25;;
31284;SDS011;56605;51.516;6.742;2022-10-19T07:54:51;26.17;;;13.77;;
31284;SDS011;56605;51.516;6.742;2022-10-19T07:57:17;30.45;;;13.75;;
31284;SDS011;56605;51.516;6.742;2022-10-19T07:59:42;24.20;;;13.07;;
31284;SDS011;56605;51.516;6.742;2022-10-19T08:02:12;29.70;;;13.93;;
31284;SDS011;56605;51.516;6.742;2022-10-19T08:04:37;28.92;;;12.52;;
31284;SDS011;56605;51.516;6.742;2022-10-19T08:07:03;28.40;;;12.80;;
31284;SDS011;56605;51.516;6.742;2022-10-19T08:09:28;28.23;;;13.10;;
31284;SDS011;56605;51.516;6.742;2022-10-19T08:11:54;24.47;;;12.60;;
31284;SDS011;56605;51.516;6.742;2022-10-19T08:14:19;27.37;;;13.40;;
31284;SDS011;56605;51.516;6.742;2022-10-19T08:16:44;26.92;;;12.63;;
31284;SDS011;56605;51.516;6.742;2022-10-19T08:19:10;19.17;;;12.27;;
31284;SDS011;56605;51.516;6.742;2022-10-19T08:21:36;31.25;;;12.40;;
31284;SDS011;56605;51.516;6.742;2022-10-19T08:24:02;20.10;;;10.63;;
31284;SDS011;56605;51.516;6.742;2022-10-19T08:26:28;21.77;;;11.60;;
31284;SDS011;56605;51.516;6.742;2022-10-19T08:28:57;24.50;;;11.45;;
31284;SDS011;56605;51.516;6.742;2022-10-19T08:31:23;17.98;;;10.48;;
31284;SDS011;56605;51.516;6.742;2022-10-19T08:33:49;20.57;;;9.80;;
31284;SDS011;56605;51.516;6.742;2022-10-19T08:36:14;17.30;;;9.43;;
31284;SDS011;56605;51.516;6.742;2022-10-19T08:38:40;17.20;;;9.07;;
31284;SDS011;56605;51.516;6.742;2022-10-19T08:41:15;21.02;;;9.80;;
31284;SDS011;56605;51.516;6.742;2022-10-19T08:43:47;21.35;;;9.05;;
31284;SDS011;56605;51.516;6.742;2022-10-19T08:46:23;18.95;;;8.43;;
31284;SDS011;56605;51.516;6.742;2022-10-19T08:48:49;17.95;;;9.00;;
31284;SDS011;56605;51.516;6.742;2022-10-19T08:51:15;19.52;;;9.60;;
31284;SDS011;56605;51.516;6.742;2022-10-19T08:53:59;20.17;;;9.80;;
31284;SDS011;56605;51.516;6.742;2022-10-19T08:56:30;19.50;;;8.43;;
31284;SDS011;56605;51.516;6.742;2022-10-19T09:01:27;16.07;;;8.13;;
31284;SDS011;56605;51.516;6.742;2022-10-19T09:06:44;13.43;;;7.15;;
31284;SDS011;56605;51.516;6.742;2022-10-19T09:09:13;16.58;;;7.38;;
31284;SDS011;56605;51.516;6.742;2022-10-19T09:11:41;18.95;;;8.15;;
31284;SDS011;56605;51.516;6.742;2022-10-19T09:14:17;16.45;;;7.28;;
31284;SDS011;56605;51.516;6.742;2022-10-19T09:16:45;16.13;;;6.90;;
31284;SDS011;56605;51.516;6.742;2022-10-19T09:19:11;13.43;;;7.20;;
31284;SDS011;56605;51.516;6.742;2022-10-19T09:21:42;14.23;;;7.07;;
31284;SDS011;56605;51.516;6.742;2022-10-19T09:24:15;14.57;;;5.90;;
31284;SDS011;56605;51.516;6.742;2022-10-19T09:26:51;8.27;;;5.05;;
31284;SDS011;56605;51.516;6.742;2022-10-19T09:31:42;11.00;;;4.65;;
31284;SDS011;56605;51.516;6.742;2022-10-19T09:34:12;11.45;;;3.72;;
31284;SDS011;56605;51.516;6.742;2022-10-19T09:36:40;14.35;;;4.20;;
31284;SDS011;56605;51.516;6.742;2022-10-19T09:39:07;10.38;;;3.80;;
31284;SDS011;56605;51.516;6.742;2022-10-19T09:41:33;8.10;;;3.50;;
31284;SDS011;56605;51.516;6.742;2022-10-19T09:43:59;9.77;;;3.70;;
31284;SDS011;56605;51.516;6.742;2022-10-19T09:46:33;6.20;;;3.05;;
31284;SDS011;56605;51.516;6.742;2022-10-19T09:48:59;7.35;;;3.35;;
31284;SDS011;56605;51.516;6.742;2022-10-19T09:51:25;12.60;;;3.13;;
31284;SDS011;56605;51.516;6.742;2022-10-19T09:54:02;9.77;;;2.70;;
31284;SDS011;56605;51.516;6.742;2022-10-19T09:56:27;5.53;;;2.65;;
31284;SDS011;56605;51.516;6.742;2022-10-19T09:58:54;3.90;;;2.28;;
31284;SDS011;56605;51.516;6.742;2022-10-19T10:01:34;6.63;;;2.85;;
31284;SDS011;56605;51.516;6.742;2022-10-19T10:04:06;6.97;;;2.95;;
31284;SDS011;56605;51.516;6.742;2022-10-19T10:06:32;7.82;;;2.10;;
31284;SDS011;56605;51.516;6.742;2022-10-19T10:08:57;6.13;;;2.22;;
31284;SDS011;56605;51.516;6.742;2022-10-19T10:11:23;4.60;;;2.15;;
31284;SDS011;56605;51.516;6.742;2022-10-19T10:13:52;6.55;;;2.20;;
31284;SDS011;56605;51.516;6.742;2022-10-19T10:16:22;4.18;;;1.98;;
31284;SDS011;56605;51.516;6.742;2022-10-19T10:21:13;9.10;;;2.38;;
31284;SDS011;56605;51.516;6.742;2022-10-19T10:23:43;8.75;;;2.05;;
31284;SDS011;56605;51.516;6.742;2022-10-19T10:26:22;7.00;;;2.15;;
31284;SDS011;56605;51.516;6.742;2022-10-19T10:28:49;4.47;;;2.00;;
31284;SDS011;56605;51.516;6.742;2022-10-19T10:31:17;4.50;;;2.40;;
31284;SDS011;56605;51.516;6.742;2022-10-19T10:33:43;6.35;;;2.60;;
31284;SDS011;56605;51.516;6.742;2022-10-19T10:36:16;4.28;;;2.58;;
31284;SDS011;56605;51.516;6.742;2022-10-19T10:41:14;7.28;;;2.72;;
31284;SDS011;56605;51.516;6.742;2022-10-19T10:43:54;7.15;;;2.22;;
31284;SDS011;56605;51.516;6.742;2022-10-19T10:46:21;5.88;;;2.30;;
31284;SDS011;56605;51.516;6.742;2022-10-19T10:48:52;7.75;;;2.63;;
31284;SDS011;56605;51.516;6.742;2022-10-19T10:51:20;6.15;;;2.15;;
31284;SDS011;56605;51.516;6.742;2022-10-19T10:53:46;5.50;;;2.17;;
31284;SDS011;56605;51.516;6.742;2022-10-19T10:56:25;3.60;;;1.88;;
31284;SDS011;56605;51.516;6.742;2022-10-19T10:58:58;4.20;;;1.33;;
31284;SDS011;56605;51.516;6.742;2022-10-19T11:01:29;5.22;;;1.75;;
31284;SDS011;56605;51.516;6.742;2022-10-19T11:03:59;7.63;;;1.98;;
31284;SDS011;56605;51.516;6.742;2022-10-19T11:06:24;5.72;;;1.90;;
31284;SDS011;56605;51.516;6.742;2022-10-19T11:08:57;3.30;;;1.63;;
31284;SDS011;56605;51.516;6.742;2022-10-19T11:11:24;7.40;;;1.80;;
31284;SDS011;56605;51.516;6.742;2022-10-19T11:13:52;4.47;;;1.70;;
31284;SDS011;56605;51.516;6.742;2022-10-19T11:16:22;5.28;;;1.60;;
31284;SDS011;56605;51.516;6.742;2022-10-19T11:18:52;5.80;;;1.80;;
31284;SDS011;56605;51.516;6.742;2022-10-19T11:26:18;5.20;;;2.20;;
31284;SDS011;56605;51.516;6.742;2022-10-19T11:31:17;4.22;;;2.83;;
31284;SDS011;56605;51.516;6.742;2022-10-19T11:33:46;4.15;;;1.85;;
31284;SDS011;56605;51.516;6.742;2022-10-19T11:43:41;7.05;;;2.40;;
31284;SDS011;56605;51.516;6.742;2022-10-19T11:46:21;4.50;;;1.38;;
31284;SDS011;56605;51.516;6.742;2022-10-19T11:48:53;5.65;;;1.80;;
31284;SDS011;56605;51.516;6.742;2022-10-19T11:54:04;5.85;;;1.58;;
31284;SDS011;56605;51.516;6.742;2022-10-19T11:56:40;5.80;;;1.70;;
31284;SDS011;56605;51.516;6.742;2022-10-19T11:59:17;6.18;;;1.60;;
31284;SDS011;56605;51.516;6.742;2022-10-19T12:14:31;4.40;;;1.30;;
31284;SDS011;56605;51.516;6.742;2022-10-19T12:16:59;4.05;;;1.27;;
31284;SDS011;56605;51.516;6.742;2022-10-19T12:19:31;3.33;;;1.10;;
31284;SDS011;56605;51.516;6.742;2022-10-19T12:21:59;9.20;;;1.85;;
31284;SDS011;56605;51.516;6.742;2022-10-19T12:24:25;2.55;;;1.38;;
31284;SDS011;56605;51.516;6.742;2022-10-19T12:26:52;3.38;;;1.27;;
31284;SDS011;56605;51.516;6.742;2022-10-19T12:29:28;3.17;;;1.20;;
31284;SDS011;56605;51.516;6.742;2022-10-19T12:31:54;1.77;;;1.05;;
31284;SDS011;56605;51.516;6.742;2022-10-19T12:37:14;4.65;;;1.58;;
31284;SDS011;56605;51.516;6.742;2022-10-19T12:43:00;4.53;;;1.40;;
31284;SDS011;56605;51.516;6.742;2022-10-19T12:47:33;8.18;;;1.80;;
31284;SDS011;56605;51.516;6.742;2022-10-19T12:49:59;7.70;;;2.05;;
31284;SDS011;56605;51.516;6.742;2022-10-19T12:55:26;3.55;;;1.63;;
31284;SDS011;56605;51.516;6.742;2022-10-19T12:57:55;2.90;;;1.60;;
31284;SDS011;56605;51.516;6.742;2022-10-19T13:00:22;3.63;;;1.63;;
31284;SDS011;56605;51.516;6.742;2022-10-19T13:03:34;3.80;;;1.58;;
31284;SDS011;56605;51.516;6.742;2022-10-19T13:05:33;3.45;;;2.17;;
31284;SDS011;56605;51.516;6.742;2022-10-19T13:08:00;6.15;;;1.98;;
31284;SDS011;56605;51.516;6.742;2022-10-19T13:10:27;5.57;;;2.17;;
31284;SDS011;56605;51.516;6.742;2022-10-19T13:12:53;2.95;;;1.50;;
31284;SDS011;56605;51.516;6.742;2022-10-19T13:17:59;5.55;;;1.40;;
31284;SDS011;56605;51.516;6.742;2022-10-19T13:28:36;5.88;;;1.50;;
31284;SDS011;56605;51.516;6.742;2022-10-19T13:38:23;5.37;;;1.60;;
31284;SDS011;56605;51.516;6.742;2022-10-19T13:43:19;4.63;;;1.42;;
31284;SDS011;56605;51.516;6.742;2022-10-19T13:48:23;5.93;;;1.25;;
31284;SDS011;56605;51.516;6.742;2022-10-19T13:50:56;2.80;;;1.27;;
31284;SDS011;56605;51.516;6.742;2022-10-19T13:53:34;5.57;;;1.90;;
31284;SDS011;56605;51.516;6.742;2022-10-19T13:58:32;4.10;;;1.33;;
31284;SDS011;56605;51.516;6.742;2022-10-19T14:06:21;3.38;;;1.30;;
31284;SDS011;56605;51.516;6.742;2022-10-19T14:11:25;5.40;;;1.58;;
31284;SDS011;56605;51.516;6.742;2022-10-19T14:19:13;6.78;;;2.70;;
31284;SDS011;56605;51.516;6.742;2022-10-19T14:21:38;7.75;;;2.05;;
31284;SDS011;56605;51.516;6.742;2022-10-19T14:24:17;4.70;;;1.95;;
31284;SDS011;56605;51.516;6.742;2022-10-19T14:26:42;5.43;;;1.55;;
31284;SDS011;56605;51.516;6.742;2022-10-19T14:29:10;4.63;;;1.80;;
31284;SDS011;56605;51.516;6.742;2022-10-19T14:31:36;2.80;;;1.75;;
31284;SDS011;56605;51.516;6.742;2022-10-19T14:34:02;7.47;;;2.28;;
31284;SDS011;56605;51.516;6.742;2022-10-19T14:36:38;5.45;;;1.70;;
31284;SDS011;56605;51.516;6.742;2022-10-19T14:39:07;6.60;;;1.52;;
31284;SDS011;56605;51.516;6.742;2022-10-19T14:41:33;4.65;;;1.85;;
31284;SDS011;56605;51.516;6.742;2022-10-19T14:44:00;5.15;;;1.80;;
31284;SDS011;56605;51.516;6.742;2022-10-19T14:46:30;5.30;;;1.88;;
31284;SDS011;56605;51.516;6.742;2022-10-19T14:49:04;4.68;;;2.03;;
31284;SDS011;56605;51.516;6.742;2022-10-19T14:51:43;2.63;;;1.75;;
31284;SDS011;56605;51.516;6.742;2022-10-19T14:54:22;3.35;;;1.77;;
31284;SDS011;56605;51.516;6.742;2022-10-19T14:56:50;5.15;;;1.85;;
31284;SDS011;56605;51.516;6.742;2022-10-19T15:01:51;5.80;;;2.53;;
31284;SDS011;56605;51.516;6.742;2022-10-19T15:04:18;3.97;;;1.70;;
31284;SDS011;56605;51.516;6.742;2022-10-19T15:06:44;5.15;;;2.42;;
31284;SDS011;56605;51.516;6.742;2022-10-19T15:09:16;6.15;;;2.20;;
31284;SDS011;56605;51.516;6.742;2022-10-19T15:11:42;4.25;;;2.00;;
31284;SDS011;56605;51.516;6.742;2022-10-19T15:14:14;4.72;;;1.95;;
31284;SDS011;56605;51.516;6.742;2022-10-19T15:19:14;7.53;;;1.75;;
31284;SDS011;56605;51.516;6.742;2022-10-19T15:21:40;5.50;;;2.15;;
31284;SDS011;56605;51.516;6.742;2022-10-19T15:24:26;4.40;;;1.47;;
31284;SDS011;56605;51.516;6.742;2022-10-19T15:26:50;4.97;;;1.95;;
31284;SDS011;56605;51.516;6.742;2022-10-19T15:29:26;3.45;;;1.80;;
31284;SDS011;56605;51.516;6.742;2022-10-19T15:31:52;6.57;;;1.70;;
31284;SDS011;56605;51.516;6.742;2022-10-19T15:34:24;7.30;;;1.80;;
31284;SDS011;56605;51.516;6.742;2022-10-19T15:36:58;4.63;;;1.85;;
31284;SDS011;56605;51.516;6.742;2022-10-19T15:39:26;7.82;;;2.10;;
31284;SDS011;56605;51.516;6.742;2022-10-19T15:41:53;2.90;;;1.50;;
31284;SDS011;56605;51.516;6.742;2022-10-19T15:44:31;7.57;;;2.00;;
31284;SDS011;56605;51.516;6.742;2022-10-19T15:52:03;5.60;;;2.05;;
31284;SDS011;56605;51.516;6.742;2022-10-19T15:54:38;5.82;;;2.03;;
31284;SDS011;56605;51.516;6.742;2022-10-19T15:57:03;5.95;;;1.77;;
31284;SDS011;56605;51.516;6.742;2022-10-19T15:59:28;3.07;;;1.67;;
31284;SDS011;56605;51.516;6.742;2022-10-19T16:01:53;5.10;;;1.63;;
31284;SDS011;56605;51.516;6.742;2022-10-19T16:04:18;4.27;;;2.00;;
31284;SDS011;56605;51.516;6.742;2022-10-19T16:06:44;4.82;;;1.80;;
31284;SDS011;56605;51.516;6.742;2022-10-19T16:09:13;4.07;;;1.90;;
31284;SDS011;56605;51.516;6.742;2022-10-19T16:11:39;5.85;;;1.80;;
31284;SDS011;56605;51.516;6.742;2022-10-19T16:14:04;3.80;;;1.67;;
31284;SDS011;56605;51.516;6.742;2022-10-19T16:16:30;5.07;;;1.40;;
31284;SDS011;56605;51.516;6.742;2022-10-19T16:18:56;5.05;;;1.40;;
31284;SDS011;56605;51.516;6.742;2022-10-19T16:21:24;6.10;;;1.58;;
31284;SDS011;56605;51.516;6.742;2022-10-19T16:23:49;7.05;;;1.92;;
31284;SDS011;56605;51.516;6.742;2022-10-19T16:26:16;5.85;;;1.95;;
31284;SDS011;56605;51.516;6.742;2022-10-19T16:28:41;6.10;;;1.92;;
31284;SDS011;56605;51.516;6.742;2022-10-19T16:31:07;5.25;;;1.65;;
31284;SDS011;56605;51.516;6.742;2022-10-19T16:33:32;2.47;;;1.33;;
31284;SDS011;56605;51.516;6.742;2022-10-19T16:35:57;3.05;;;1.50;;
31284;SDS011;56605;51.516;6.742;2022-10-19T16:38:23;3.28;;;1.65;;
31284;SDS011;56605;51.516;6.742;2022-10-19T16:40:48;4.90;;;1.70;;
31284;SDS011;56605;51.516;6.742;2022-10-19T16:43:13;2.65;;;1.75;;
31284;SDS011;56605;51.516;6.742;2022-10-19T16:45:41;5.27;;;2.53;;